createdAt,value
2019-06-01T00:00:12.237Z,5.13
2019-06-01T00:01:49.241Z,4.97
2019-06-01T00:03:25.491Z,4.50
2019-06-01T00:05:00.810Z,5.23
2019-06-01T00:06:35.657Z,4.73
2019-06-01T00:08:12.036Z,5.13
2019-06-01T00:09:47.222Z,4.63
2019-06-01T00:11:22.609Z,5.23
2019-06-01T00:12:57.254Z,5.17
2019-06-01T00:14:32.499Z,5.33
2019-06-01T00:16:07.133Z,5.43
2019-06-01T00:17:42.399Z,5.40
2019-06-01T00:19:17.013Z,5.13
2019-06-01T00:20:52.748Z,5.03
2019-06-01T00:22:27.464Z,5.40
2019-06-01T00:24:02.723Z,4.77
2019-06-01T00:25:37.346Z,4.53
2019-06-01T00:27:12.589Z,5.17
2019-06-01T00:28:47.886Z,5.20
2019-06-01T00:30:27.057Z,4.87
2019-06-01T00:32:00.746Z,4.97
2019-06-01T00:33:36.019Z,5.43
2019-06-01T00:35:10.651Z,4.90
2019-06-01T00:36:45.879Z,5.20
2019-06-01T00:38:20.520Z,5.33
2019-06-01T00:39:55.856Z,5.17
2019-06-01T00:41:30.747Z,5.40
2019-06-01T00:43:06.030Z,5.40
2019-06-01T00:44:40.664Z,5.30
2019-06-01T00:46:15.916Z,5.57
2019-06-01T00:47:50.931Z,5.30
2019-06-01T00:49:26.334Z,5.50
2019-06-01T00:51:00.965Z,5.37
2019-06-01T00:52:37.401Z,5.17
2019-06-01T00:54:12.071Z,5.37
2019-06-01T00:55:49.447Z,5.80
2019-06-01T00:57:24.224Z,5.50
2019-06-01T00:58:59.452Z,5.87
2019-06-01T01:00:43.194Z,5.77
2019-06-01T01:02:11.115Z,6.33
2019-06-01T01:03:46.067Z,6.43
2019-06-01T01:05:22.264Z,5.97
2019-06-01T01:06:56.933Z,6.50
2019-06-01T01:08:32.179Z,6.13
2019-06-01T01:10:07.389Z,6.60
2019-06-01T01:11:42.624Z,6.70
2019-06-01T01:13:19.700Z,6.90
2019-06-01T01:14:55.399Z,6.97
2019-06-01T01:16:30.100Z,6.63
2019-06-01T01:18:06.305Z,6.40
2019-06-01T01:19:40.938Z,6.93
2019-06-01T01:21:16.292Z,6.20
2019-06-01T01:22:52.157Z,7.23
2019-06-01T01:24:28.700Z,6.57
2019-06-01T01:26:03.361Z,6.20
2019-06-01T01:27:38.598Z,6.03
2019-06-01T01:29:13.253Z,6.67
2019-06-01T01:31:05.079Z,6.67
2019-06-01T01:32:24.846Z,6.57
2019-06-01T01:34:00.134Z,7.17
2019-06-01T01:35:34.817Z,7.43
2019-06-01T01:37:15.425Z,6.67
2019-06-01T01:38:52.287Z,7.60
2019-06-01T01:40:30.107Z,6.90
2019-06-01T01:42:05.385Z,6.90
2019-06-01T01:43:40.051Z,7.00
2019-06-01T01:45:15.491Z,7.43
2019-06-01T01:46:50.717Z,7.80
2019-06-01T01:48:26.084Z,7.40
2019-06-01T01:50:00.738Z,6.77
2019-06-01T01:51:35.973Z,7.23
2019-06-01T01:53:10.630Z,7.03
2019-06-01T01:54:45.925Z,7.00
2019-06-01T01:56:20.572Z,8.53
2019-06-01T01:57:55.892Z,8.00
2019-06-01T01:59:30.565Z,7.27
2019-06-01T02:01:21.341Z,7.70
2019-06-01T02:02:42.257Z,7.50
2019-06-01T02:04:17.579Z,7.97
2019-06-01T02:05:52.933Z,8.00
2019-06-01T02:07:28.291Z,7.20
2019-06-01T02:09:03.040Z,7.87
2019-06-01T02:10:40.177Z,7.83
2019-06-01T02:12:14.833Z,8.37
2019-06-01T02:13:51.481Z,8.13
2019-06-01T02:15:26.282Z,8.60
2019-06-01T02:17:02.494Z,7.40
2019-06-01T02:18:37.403Z,7.57
2019-06-01T02:20:12.824Z,8.43
2019-06-01T02:21:47.467Z,8.40
2019-06-01T02:23:22.691Z,8.63
2019-06-01T02:24:57.839Z,8.13
2019-06-01T02:26:33.167Z,8.10
2019-06-01T02:28:07.898Z,8.23
2019-06-01T02:29:43.209Z,7.83
2019-06-01T02:31:17.883Z,9.30
2019-06-01T02:32:53.867Z,8.13
2019-06-01T02:34:28.633Z,8.33
2019-06-01T02:36:05.263Z,8.17
2019-06-01T02:37:40.240Z,8.80
2019-06-01T02:39:15.850Z,7.97
2019-06-01T02:40:51.113Z,8.00
2019-06-01T02:42:26.378Z,8.03
2019-06-01T02:44:01.698Z,8.93
2019-06-01T02:45:37.449Z,8.57
2019-06-01T02:47:12.103Z,8.20
2019-06-01T02:48:47.354Z,8.50
2019-06-01T02:50:22.099Z,8.70
2019-06-01T02:51:57.329Z,8.20
2019-06-01T02:53:32.174Z,8.60
2019-06-01T02:55:07.888Z,7.87
2019-06-01T02:56:42.546Z,8.43
2019-06-01T02:58:17.905Z,8.30
2019-06-01T02:59:52.573Z,8.67
2019-06-01T03:01:34.708Z,8.97
2019-06-01T03:03:10.016Z,9.87
2019-06-01T03:04:44.678Z,9.07
2019-06-01T03:06:20.152Z,8.97
2019-06-01T03:07:55.203Z,9.13
2019-06-01T03:09:31.230Z,8.67
2019-06-01T03:11:06.565Z,9.00
2019-06-01T03:12:45.417Z,9.40
2019-06-01T03:14:21.334Z,9.27
2019-06-01T03:15:58.390Z,8.80
2019-06-01T03:17:33.055Z,8.67
2019-06-01T03:19:08.365Z,9.17
2019-06-01T03:20:44.687Z,9.00
2019-06-01T03:22:21.111Z,10.27
2019-06-01T03:23:57.284Z,9.53
2019-06-01T03:25:32.893Z,9.10
2019-06-01T03:27:08.264Z,9.73
2019-06-01T03:28:45.000Z,9.53
2019-06-01T03:30:30.178Z,9.20
2019-06-01T03:32:24.191Z,8.73
2019-06-01T03:33:41.938Z,9.67
2019-06-01T03:35:17.204Z,9.03
2019-06-01T03:36:52.050Z,10.00
2019-06-01T03:38:27.304Z,9.80
2019-06-01T03:40:05.671Z,9.37
2019-06-01T03:41:38.992Z,9.77
2019-06-01T03:43:14.450Z,9.33
2019-06-01T03:44:49.704Z,9.27
2019-06-01T03:46:24.361Z,9.33
2019-06-01T03:48:00.519Z,9.27
2019-06-01T03:49:35.224Z,9.40
2019-06-01T03:51:10.464Z,9.60
2019-06-01T03:52:45.134Z,9.57
2019-06-01T03:54:21.361Z,10.00
2019-06-01T03:55:56.046Z,8.80
2019-06-01T03:57:31.286Z,9.00
2019-06-01T03:59:07.151Z,9.20
2019-06-01T04:00:42.555Z,9.20
2019-06-01T04:02:32.251Z,9.27
2019-06-01T04:03:55.461Z,8.70
2019-06-01T04:05:30.140Z,10.00
2019-06-01T04:07:06.420Z,9.50
2019-06-01T04:08:41.009Z,8.77
2019-06-01T04:10:16.260Z,9.50
2019-06-01T04:11:52.368Z,8.33
2019-06-01T04:13:27.672Z,9.20
2019-06-01T04:15:08.384Z,9.40
2019-06-01T04:16:42.736Z,9.00
2019-06-01T04:18:17.463Z,9.03
2019-06-01T04:19:52.701Z,8.37
2019-06-01T04:21:27.360Z,8.60
2019-06-01T04:23:04.473Z,9.20
2019-06-01T04:24:38.985Z,8.33
2019-06-01T04:26:14.235Z,8.60
2019-06-01T04:27:48.873Z,9.37
2019-06-01T04:29:24.146Z,8.63
2019-06-01T04:30:58.806Z,9.60
2019-06-01T04:32:48.974Z,9.30
2019-06-01T04:34:11.026Z,8.53
2019-06-01T04:35:46.434Z,8.43
2019-06-01T04:37:21.099Z,9.20
2019-06-01T04:38:56.342Z,7.73
2019-06-01T04:40:30.983Z,8.60
2019-06-01T04:42:07.624Z,7.93
2019-06-01T04:43:42.359Z,9.07
2019-06-01T04:45:17.858Z,8.90
2019-06-01T04:46:52.501Z,8.07
2019-06-01T04:48:27.762Z,8.07
2019-06-01T04:50:02.412Z,8.07
2019-06-01T04:51:38.703Z,8.93
2019-06-01T04:53:13.531Z,8.10
2019-06-01T04:54:48.866Z,7.97
2019-06-01T04:56:23.511Z,7.83
2019-06-01T04:57:58.821Z,7.83
2019-06-01T04:59:33.474Z,6.93
2019-06-01T05:01:09.045Z,7.07
2019-06-01T05:02:43.838Z,7.27
2019-06-01T05:04:20.234Z,6.67
2019-06-01T05:05:54.949Z,7.03
2019-06-01T05:07:30.168Z,6.97
2019-06-01T05:09:07.633Z,7.10
2019-06-01T05:10:43.931Z,6.70
2019-06-01T05:12:18.620Z,6.17
2019-06-01T05:13:53.862Z,6.67
2019-06-01T05:15:28.503Z,6.60
2019-06-01T05:17:03.777Z,7.03
2019-06-01T05:18:38.414Z,6.83
2019-06-01T05:20:14.756Z,6.50
2019-06-01T05:21:49.480Z,6.17
2019-06-01T05:23:24.721Z,6.53
2019-06-01T05:24:59.392Z,6.50
2019-06-01T05:26:34.628Z,6.73
2019-06-01T05:28:09.373Z,6.33
2019-06-01T05:29:45.751Z,6.33
2019-06-01T05:31:25.095Z,7.10
2019-06-01T05:32:57.458Z,6.93
2019-06-01T05:34:32.117Z,6.47
2019-06-01T05:36:08.009Z,6.67
2019-06-01T05:37:42.791Z,7.03
2019-06-01T05:39:18.783Z,6.60
2019-06-01T05:40:53.557Z,6.17
2019-06-01T05:42:28.816Z,6.80
2019-06-01T05:44:05.422Z,6.17
2019-06-01T05:45:40.666Z,6.70
2019-06-01T05:47:16.243Z,7.20
2019-06-01T05:48:52.673Z,6.70
2019-06-01T05:50:27.277Z,5.87
2019-06-01T05:52:02.514Z,6.67
2019-06-01T05:53:37.207Z,6.40
2019-06-01T05:55:12.936Z,6.80
2019-06-01T05:56:47.630Z,6.47
2019-06-01T05:58:22.869Z,6.10
2019-06-01T05:59:57.534Z,7.07
2019-06-01T06:01:32.754Z,6.57
2019-06-01T06:03:07.529Z,6.80
2019-06-01T06:04:42.767Z,7.40
2019-06-01T06:06:17.753Z,7.00
2019-06-01T06:07:53.036Z,6.90
2019-06-01T06:09:27.741Z,7.10
2019-06-01T06:11:02.997Z,7.13
2019-06-01T06:12:37.824Z,7.33
2019-06-01T06:14:13.390Z,6.70
2019-06-01T06:15:49.014Z,6.33
2019-06-01T06:17:24.532Z,7.10
2019-06-01T06:18:59.321Z,7.03
2019-06-01T06:20:34.609Z,8.07
2019-06-01T06:22:09.288Z,6.73
2019-06-01T06:23:45.592Z,7.83
2019-06-01T06:25:20.347Z,6.90
2019-06-01T06:26:55.568Z,6.77
2019-06-01T06:28:30.293Z,7.07
2019-06-01T06:30:06.703Z,7.63
2019-06-01T06:31:41.336Z,7.87
2019-06-01T06:33:17.346Z,6.80
2019-06-01T06:34:52.088Z,6.90
2019-06-01T06:36:27.349Z,7.70
2019-06-01T06:38:02.088Z,7.57
2019-06-01T06:39:37.315Z,7.77
2019-06-01T06:41:12.039Z,6.60
2019-06-01T06:42:47.379Z,6.67
2019-06-01T06:44:22.652Z,7.50
2019-06-01T06:45:57.989Z,6.17
2019-06-01T06:47:32.742Z,6.13
2019-06-01T06:49:09.987Z,6.97
2019-06-01T06:50:44.310Z,7.07
2019-06-01T06:52:19.599Z,7.13
2019-06-01T06:53:54.222Z,6.57
2019-06-01T06:55:29.450Z,6.80
2019-06-01T06:57:04.178Z,5.40
2019-06-01T06:58:39.395Z,6.37
2019-06-01T07:00:14.498Z,6.43
2019-06-01T07:01:49.743Z,6.37
2019-06-01T07:03:25.182Z,5.60
2019-06-01T07:05:00.482Z,5.17
2019-06-01T07:06:35.267Z,4.73
2019-06-01T07:08:13.132Z,6.00
2019-06-01T07:09:47.759Z,6.20
2019-06-01T07:11:23.439Z,4.80
2019-06-01T07:12:58.202Z,5.30
2019-06-01T07:14:33.627Z,5.00
2019-06-01T07:16:08.279Z,5.30
2019-06-01T07:17:43.517Z,4.07
2019-06-01T07:19:19.352Z,3.93
2019-06-01T07:20:54.825Z,3.83
2019-06-01T07:22:29.589Z,3.73
2019-06-01T07:24:04.995Z,3.47
2019-06-01T07:25:39.668Z,3.80
2019-06-01T07:27:14.944Z,4.20
2019-06-01T07:28:49.553Z,3.50
2019-06-01T07:30:24.810Z,3.83
2019-06-01T07:31:59.453Z,3.77
2019-06-01T07:33:34.742Z,4.70
2019-06-01T07:35:09.421Z,5.10
2019-06-01T07:36:44.733Z,5.90
2019-06-01T07:38:20.248Z,4.23
2019-06-01T07:39:55.501Z,10.67
2019-06-01T07:41:30.190Z,4.10
2019-06-01T07:43:05.413Z,4.20
2019-06-01T07:44:40.061Z,3.67
2019-06-01T07:46:15.286Z,3.30
2019-06-01T07:47:49.957Z,3.20
2019-06-01T07:49:25.200Z,3.63
2019-06-01T07:50:59.841Z,3.00
2019-06-01T07:52:35.135Z,3.40
2019-06-01T07:54:09.886Z,3.90
2019-06-01T07:55:45.206Z,4.07
2019-06-01T07:57:19.852Z,3.60
2019-06-01T07:58:55.049Z,4.17
2019-06-01T08:00:33.053Z,4.00
2019-06-01T08:02:09.431Z,5.33
2019-06-01T08:03:44.049Z,5.80
2019-06-01T08:05:19.722Z,3.40
2019-06-01T08:06:54.429Z,3.13
2019-06-01T08:08:40.723Z,3.17
2019-06-01T08:10:17.799Z,3.20
2019-06-01T08:11:52.463Z,3.47
2019-06-01T08:13:32.241Z,3.37
2019-06-01T08:15:04.808Z,3.57
2019-06-01T08:16:40.010Z,3.27
2019-06-01T08:18:14.663Z,3.37
2019-06-01T08:19:51.857Z,2.73
2019-06-01T08:21:26.247Z,3.23
2019-06-01T08:23:01.470Z,3.60
2019-06-01T08:24:36.166Z,3.30
2019-06-01T08:26:11.393Z,3.47
2019-06-01T08:27:46.045Z,3.73
2019-06-01T08:29:22.601Z,2.77
2019-06-01T08:30:57.420Z,2.93
2019-06-01T08:32:32.941Z,2.80
2019-06-01T08:34:07.772Z,2.90
2019-06-01T08:35:43.070Z,3.10
2019-06-01T08:37:17.726Z,2.50
2019-06-01T08:38:52.974Z,2.60
2019-06-01T08:40:27.667Z,2.73
2019-06-01T08:42:02.998Z,2.50
2019-06-01T08:43:38.348Z,3.00
2019-06-01T08:45:14.172Z,2.87
2019-06-01T08:46:48.835Z,2.47
2019-06-01T08:48:25.558Z,2.90
2019-06-01T08:50:00.418Z,2.33
2019-06-01T08:51:35.656Z,2.30
2019-06-01T08:53:10.293Z,2.40
2019-06-01T08:54:45.515Z,2.73
2019-06-01T08:56:21.939Z,2.77
2019-06-01T08:57:57.081Z,2.80
2019-06-01T08:59:32.580Z,2.80
2019-06-01T09:01:07.941Z,2.60
2019-06-01T09:02:42.608Z,3.07
2019-06-01T09:04:17.840Z,2.00
2019-06-01T09:05:52.570Z,2.50
2019-06-01T09:07:29.013Z,2.10
2019-06-01T09:09:04.690Z,2.00
2019-06-01T09:10:39.920Z,1.90
2019-06-01T09:12:14.629Z,2.00
2019-06-01T09:13:52.298Z,2.07
2019-06-01T09:15:27.578Z,1.77
2019-06-01T09:17:03.002Z,2.00
2019-06-01T09:18:37.663Z,2.30
2019-06-01T09:20:13.240Z,2.20
2019-06-01T09:21:47.899Z,2.10
2019-06-01T09:23:23.135Z,2.03
2019-06-01T09:24:57.884Z,2.10
2019-06-01T09:26:34.165Z,2.23
2019-06-01T09:28:11.850Z,2.07
2019-06-01T09:29:48.157Z,2.10
2019-06-01T09:31:22.784Z,2.50
2019-06-01T09:32:59.161Z,2.43
2019-06-01T09:34:34.509Z,2.30
2019-06-01T09:36:09.869Z,2.40
2019-06-01T09:37:45.850Z,2.23
2019-06-01T09:39:21.308Z,2.70
2019-06-01T09:40:56.028Z,2.20
2019-06-01T09:42:33.262Z,2.50
2019-06-01T09:44:08.015Z,2.50
2019-06-01T09:45:43.316Z,2.70
2019-06-01T09:47:18.077Z,2.20
2019-06-01T09:48:53.335Z,2.07
2019-06-01T09:50:29.178Z,2.10
2019-06-01T09:52:04.510Z,1.93
2019-06-01T09:53:39.242Z,2.07
2019-06-01T09:55:14.996Z,2.60
2019-06-01T09:56:49.694Z,2.10
2019-06-01T09:58:24.923Z,2.17
2019-06-01T09:59:59.582Z,2.33
2019-06-01T10:01:34.897Z,2.17
2019-06-01T10:03:09.519Z,2.10
2019-06-01T10:04:44.773Z,2.60
2019-06-01T10:06:19.390Z,2.00
2019-06-01T10:07:54.646Z,2.10
2019-06-01T10:09:29.532Z,2.27
2019-06-01T10:11:04.913Z,2.10
2019-06-01T10:12:39.563Z,1.93
2019-06-01T10:14:14.812Z,1.87
2019-06-01T10:15:49.537Z,2.23
2019-06-01T10:17:24.810Z,2.23
2019-06-01T10:18:59.534Z,2.30
2019-06-01T10:20:34.876Z,2.07
2019-06-01T10:22:09.586Z,1.83
2019-06-01T10:23:48.962Z,2.00
2019-06-01T10:25:21.334Z,1.83
2019-06-01T10:26:56.553Z,1.77
2019-06-01T10:28:31.684Z,1.90
2019-06-01T10:30:07.432Z,1.90
2019-06-01T10:31:43.176Z,1.70
2019-06-01T10:33:18.411Z,1.70
2019-06-01T10:34:53.163Z,2.23
2019-06-01T10:36:28.420Z,1.67
2019-06-01T10:38:03.045Z,1.87
2019-06-01T10:39:39.426Z,1.90
2019-06-01T10:41:14.171Z,2.00
2019-06-01T10:42:49.419Z,2.10
2019-06-01T10:44:24.065Z,2.20
2019-06-01T10:45:59.309Z,2.00
2019-06-01T10:47:33.969Z,2.33
2019-06-01T10:49:09.263Z,2.27
2019-06-01T10:50:43.943Z,1.70
2019-06-01T10:52:19.188Z,1.80
2019-06-01T10:53:53.897Z,1.80
2019-06-01T10:55:29.130Z,1.80
2019-06-01T10:57:04.173Z,2.20
2019-06-01T10:58:56.684Z,1.90
2019-06-01T11:00:16.513Z,1.93
2019-06-01T11:01:51.821Z,1.87
2019-06-01T11:03:26.476Z,1.97
2019-06-01T11:05:01.723Z,1.70
2019-06-01T11:06:42.512Z,1.87
2019-06-01T11:08:13.271Z,2.20
2019-06-01T11:09:48.017Z,1.67
2019-06-01T11:11:24.721Z,1.60
2019-06-01T11:12:59.353Z,1.63
2019-06-01T11:14:34.839Z,2.17
2019-06-01T11:16:10.614Z,1.90
2019-06-01T11:17:45.900Z,2.07
2019-06-01T11:19:20.536Z,1.87
2019-06-01T11:20:55.828Z,2.00
2019-06-01T11:22:30.575Z,1.97
2019-06-01T11:24:06.150Z,2.27
2019-06-01T11:25:41.638Z,2.00
2019-06-01T11:27:17.053Z,2.00
2019-06-01T11:28:51.953Z,2.30
2019-06-01T11:30:27.337Z,1.67
2019-06-01T11:32:02.017Z,1.70
2019-06-01T11:33:38.315Z,1.73
2019-06-01T11:35:13.050Z,2.43
2019-06-01T11:37:04.871Z,3.10
2019-06-01T11:38:25.680Z,3.30
2019-06-01T11:40:00.934Z,2.07
2019-06-01T11:41:36.393Z,2.37
2019-06-01T11:43:11.650Z,2.13
2019-06-01T11:44:46.377Z,1.90
2019-06-01T11:46:21.661Z,1.53
2019-06-01T11:47:56.298Z,2.10
2019-06-01T11:49:31.548Z,2.07
2019-06-01T11:51:06.248Z,2.00
2019-06-01T11:52:43.229Z,3.00
2019-06-01T11:54:18.087Z,1.57
2019-06-01T11:55:53.615Z,1.63
2019-06-01T11:57:28.261Z,1.70
2019-06-01T11:59:03.487Z,2.40
2019-06-01T12:00:39.546Z,2.00
2019-06-01T12:02:15.245Z,1.70
2019-06-01T12:03:49.905Z,1.37
2019-06-01T12:05:25.216Z,2.00
2019-06-01T12:07:16.206Z,1.60
2019-06-01T12:08:38.038Z,1.60
2019-06-01T12:10:13.364Z,1.50
2019-06-01T12:11:50.084Z,1.83
2019-06-01T12:13:25.169Z,2.10
2019-06-01T12:15:00.409Z,2.07
2019-06-01T12:16:36.324Z,2.40
2019-06-01T12:18:11.674Z,1.90
2019-06-01T12:19:46.918Z,2.50
2019-06-01T12:21:22.329Z,1.90
2019-06-01T12:22:57.002Z,2.37
2019-06-01T12:24:32.237Z,1.77
2019-06-01T12:26:06.910Z,1.77
2019-06-01T12:27:43.366Z,2.77
2019-06-01T12:29:18.383Z,2.60
2019-06-01T12:30:53.628Z,2.00
2019-06-01T12:32:28.257Z,2.00
2019-06-01T12:34:03.484Z,2.23
2019-06-01T12:35:39.885Z,2.10
2019-06-01T12:37:15.136Z,1.93
2019-06-01T12:38:53.161Z,2.00
2019-06-01T12:40:28.455Z,2.00
2019-06-01T12:42:03.082Z,2.10
2019-06-01T12:43:39.434Z,2.23
2019-06-01T12:45:22.454Z,2.97
2019-06-01T12:46:55.043Z,3.03
2019-06-01T12:48:29.676Z,1.63
2019-06-01T12:50:06.221Z,2.70
2019-06-01T12:51:42.374Z,1.70
2019-06-01T12:53:17.869Z,2.20
2019-06-01T12:54:53.098Z,1.90
2019-06-01T12:56:28.580Z,2.30
2019-06-01T12:58:03.355Z,1.90
2019-06-01T12:59:38.649Z,2.00
2019-06-01T13:01:13.301Z,3.83
2019-06-01T13:02:56.752Z,2.70
2019-06-01T13:04:25.467Z,1.90
2019-06-01T13:06:00.697Z,1.87
2019-06-01T13:07:50.980Z,1.83
2019-06-01T13:09:13.555Z,2.33
2019-06-01T13:10:48.210Z,2.27
2019-06-01T13:12:23.851Z,1.80
2019-06-01T13:13:58.557Z,2.10
2019-06-01T13:15:33.895Z,2.10
2019-06-01T13:17:08.526Z,2.30
2019-06-01T13:18:45.591Z,1.70
2019-06-01T13:20:21.407Z,2.13
2019-06-01T13:21:56.635Z,2.10
2019-06-01T13:23:31.267Z,1.90
2019-06-01T13:25:06.805Z,2.70
2019-06-01T13:26:41.846Z,2.20
2019-06-01T13:28:17.153Z,2.30
2019-06-01T13:29:52.253Z,2.10
2019-06-01T13:31:27.646Z,2.90
2019-06-01T13:33:02.288Z,2.93
2019-06-01T13:34:37.558Z,2.00
2019-06-01T13:36:13.174Z,2.23
2019-06-01T13:37:48.851Z,2.43
2019-06-01T13:39:23.627Z,2.20
2019-06-01T13:40:58.829Z,2.50
2019-06-01T13:42:33.517Z,2.47
2019-06-01T13:44:08.828Z,3.20
2019-06-01T13:45:43.445Z,2.57
2019-06-01T13:47:18.735Z,2.40
2019-06-01T13:48:54.286Z,1.90
2019-06-01T13:50:30.613Z,2.10
2019-06-01T13:52:05.429Z,2.00
2019-06-01T13:53:40.794Z,2.20
2019-06-01T13:55:15.417Z,2.17
2019-06-01T13:56:51.012Z,1.97
2019-06-01T13:58:25.778Z,2.30
2019-06-01T14:00:01.014Z,2.10
2019-06-01T14:01:35.654Z,2.07
2019-06-01T14:03:10.939Z,2.00
2019-06-01T14:04:45.586Z,1.60
2019-06-01T14:06:20.824Z,2.10
2019-06-01T14:07:55.790Z,1.97
2019-06-01T14:09:32.023Z,2.70
2019-06-01T14:11:06.715Z,1.93
2019-06-01T14:12:41.933Z,1.67
2019-06-01T14:14:16.597Z,1.90
2019-06-01T14:15:51.831Z,1.97
2019-06-01T14:17:26.480Z,1.67
2019-06-01T14:19:01.785Z,1.87
2019-06-01T14:20:36.552Z,1.83
2019-06-01T14:22:11.791Z,2.10
2019-06-01T14:23:47.638Z,2.10
2019-06-01T14:25:22.978Z,2.30
2019-06-01T14:26:57.602Z,2.20
2019-06-01T14:28:32.828Z,2.50
2019-06-01T14:30:08.135Z,1.63
2019-06-01T14:31:43.392Z,1.37
2019-06-01T14:33:18.109Z,2.20
2019-06-01T14:34:53.668Z,1.50
2019-06-01T14:36:29.572Z,1.70
2019-06-01T14:38:04.961Z,1.97
2019-06-01T14:39:39.618Z,1.97
2019-06-01T14:41:14.848Z,2.20
2019-06-01T14:42:49.586Z,1.70
2019-06-01T14:44:25.884Z,2.00
2019-06-01T14:46:00.559Z,2.53
2019-06-01T14:47:35.811Z,1.93
2019-06-01T14:49:10.537Z,1.80
2019-06-01T14:50:47.538Z,2.10
2019-06-01T14:52:22.216Z,3.40
2019-06-01T14:53:57.942Z,2.20
2019-06-01T14:55:32.673Z,1.90
2019-06-01T14:57:07.980Z,1.83
2019-06-01T14:58:42.648Z,1.53
2019-06-01T15:00:18.743Z,1.63
2019-06-01T15:01:56.171Z,1.53
2019-06-01T15:03:31.541Z,2.60
2019-06-01T15:05:08.112Z,1.97
2019-06-01T15:06:43.355Z,3.43
2019-06-01T15:08:18.082Z,2.43
2019-06-01T15:09:54.294Z,2.07
2019-06-01T15:11:29.036Z,2.57
2019-06-01T15:13:04.304Z,2.57
2019-06-01T15:14:38.971Z,2.30
2019-06-01T15:16:14.220Z,2.03
2019-06-01T15:17:49.318Z,2.00
2019-06-01T15:19:24.578Z,1.80
2019-06-01T15:20:59.298Z,2.60
2019-06-01T15:22:34.580Z,2.03
2019-06-01T15:24:09.214Z,1.97
2019-06-01T15:25:44.460Z,2.27
2019-06-01T15:27:19.172Z,2.40
2019-06-01T15:28:54.761Z,1.97
2019-06-01T15:30:29.489Z,1.60
2019-06-01T15:32:04.748Z,2.00
2019-06-01T15:33:39.402Z,1.77
2019-06-01T15:35:14.825Z,1.90
2019-06-01T15:36:49.500Z,2.00
2019-06-01T15:38:24.989Z,2.27
2019-06-01T15:39:59.799Z,1.90
2019-06-01T15:41:35.038Z,2.50
2019-06-01T15:43:09.682Z,2.10
2019-06-01T15:44:45.004Z,1.90
2019-06-01T15:46:19.646Z,2.13
2019-06-01T15:47:55.541Z,1.60
2019-06-01T15:49:30.330Z,2.00
2019-06-01T15:51:07.362Z,2.37
2019-06-01T15:52:42.265Z,2.00
2019-06-01T15:54:17.494Z,1.87
2019-06-01T15:55:52.275Z,2.03
2019-06-01T15:57:27.458Z,1.73
2019-06-01T15:59:02.831Z,1.80
2019-06-01T16:00:38.248Z,1.90
2019-06-01T16:02:13.044Z,2.20
2019-06-01T16:03:48.279Z,2.77
2019-06-01T16:05:22.915Z,2.27
2019-06-01T16:06:59.245Z,2.00
2019-06-01T16:08:34.030Z,1.90
2019-06-01T16:10:10.403Z,1.90
2019-06-01T16:11:45.035Z,1.93
2019-06-01T16:13:20.296Z,2.20
2019-06-01T16:14:55.389Z,2.20
2019-06-01T16:16:30.741Z,1.93
2019-06-01T16:18:05.621Z,1.80
2019-06-01T16:19:40.922Z,1.80
2019-06-01T16:21:15.785Z,2.00
2019-06-01T16:22:51.025Z,1.83
2019-06-01T16:24:25.692Z,2.00
2019-06-01T16:26:09.417Z,1.90
2019-06-01T16:27:37.395Z,2.37
2019-06-01T16:29:12.615Z,2.13
2019-06-01T16:30:47.264Z,1.73
2019-06-01T16:32:22.479Z,2.10
2019-06-01T16:33:57.115Z,2.20
2019-06-01T16:35:32.391Z,1.63
2019-06-01T16:37:07.051Z,1.80
2019-06-01T16:38:42.292Z,2.10
2019-06-01T16:40:17.217Z,1.90
2019-06-01T16:41:52.460Z,1.73
2019-06-01T16:43:27.095Z,2.17
2019-06-01T16:45:03.574Z,1.97
2019-06-01T16:46:39.922Z,1.90
2019-06-01T16:48:15.160Z,1.90
2019-06-01T16:49:49.820Z,2.13
2019-06-01T16:51:25.042Z,2.23
2019-06-01T16:53:00.211Z,2.70
2019-06-01T16:54:35.535Z,2.37
2019-06-01T16:56:11.371Z,1.80
2019-06-01T16:57:46.612Z,2.40
2019-06-01T16:59:21.562Z,2.40
2019-06-01T17:00:56.808Z,2.33
2019-06-01T17:02:31.518Z,2.40
2019-06-01T17:04:06.844Z,2.10
2019-06-01T17:05:42.652Z,2.17
2019-06-01T17:07:17.903Z,1.90
2019-06-01T17:08:52.551Z,2.23
2019-06-01T17:10:27.867Z,2.27
2019-06-01T17:12:03.150Z,2.70
2019-06-01T17:13:38.398Z,2.43
2019-06-01T17:15:13.836Z,2.33
2019-06-01T17:16:49.068Z,2.40
2019-06-01T17:18:23.707Z,2.67
2019-06-01T17:19:59.058Z,2.30
2019-06-01T17:21:33.701Z,3.17
2019-06-01T17:23:24.462Z,3.20
2019-06-01T17:24:45.300Z,3.17
2019-06-01T17:26:20.562Z,2.40
2019-06-01T17:27:55.519Z,2.43
2019-06-01T17:29:30.734Z,2.30
2019-06-01T17:31:08.543Z,1.90
2019-06-01T17:32:43.871Z,2.20
2019-06-01T17:34:18.528Z,1.90
2019-06-01T17:35:53.777Z,2.03
2019-06-01T17:37:28.573Z,2.40
2019-06-01T17:39:03.968Z,2.33
2019-06-01T17:40:42.752Z,2.47
2019-06-01T17:42:15.673Z,2.50
2019-06-01T17:43:50.371Z,2.30
2019-06-01T17:45:25.678Z,2.40
2019-06-01T17:47:00.395Z,2.87
2019-06-01T17:48:35.709Z,2.37
2019-06-01T17:50:11.781Z,2.83
2019-06-01T17:51:48.328Z,3.67
2019-06-01T17:53:22.982Z,2.47
2019-06-01T17:54:58.205Z,2.60
2019-06-01T17:56:32.865Z,2.40
2019-06-01T17:58:10.056Z,2.30
2019-06-01T17:59:44.908Z,2.10
2019-06-01T18:01:20.119Z,2.80
2019-06-01T18:02:54.838Z,2.60
2019-06-01T18:04:31.645Z,3.40
2019-06-01T18:06:06.302Z,2.50
2019-06-01T18:07:41.528Z,2.30
2019-06-01T18:09:16.259Z,2.60
2019-06-01T18:10:54.519Z,2.93
2019-06-01T18:12:29.021Z,2.90
2019-06-01T18:14:04.273Z,2.53
2019-06-01T18:15:43.371Z,2.40
2019-06-01T18:17:19.023Z,2.33
2019-06-01T18:18:53.757Z,2.40
2019-06-01T18:20:28.961Z,2.30
2019-06-01T18:22:04.629Z,2.63
2019-06-01T18:23:40.046Z,4.30
2019-06-01T18:25:22.735Z,4.33
2019-06-01T18:26:59.069Z,2.60
2019-06-01T18:28:33.691Z,3.07
2019-06-01T18:30:09.010Z,4.20
2019-06-01T18:31:43.727Z,2.43
2019-06-01T18:33:19.037Z,4.53
2019-06-01T18:34:53.692Z,4.57
2019-06-01T18:36:29.110Z,2.70
2019-06-01T18:38:03.977Z,2.77
2019-06-01T18:39:39.216Z,4.37
2019-06-01T18:41:18.372Z,5.50
2019-06-01T18:42:51.534Z,3.30
2019-06-01T18:44:26.191Z,3.77
2019-06-01T18:46:01.552Z,4.20
2019-06-01T18:47:36.290Z,3.00
2019-06-01T18:49:17.951Z,4.10
2019-06-01T18:50:50.347Z,3.30
2019-06-01T18:52:25.609Z,2.60
2019-06-01T18:54:00.293Z,2.57
2019-06-01T18:55:36.572Z,5.00
2019-06-01T18:57:19.217Z,4.67
2019-06-01T18:58:48.255Z,3.43
2019-06-01T19:00:22.945Z,4.27
2019-06-01T19:01:58.256Z,5.40
2019-06-01T19:03:32.945Z,5.00
2019-06-01T19:05:09.175Z,3.60
2019-06-01T19:06:44.337Z,4.10
2019-06-01T19:08:19.589Z,4.43
2019-06-01T19:09:54.244Z,4.17
2019-06-01T19:11:35.923Z,4.00
2019-06-01T19:13:06.120Z,3.93
2019-06-01T19:14:41.385Z,3.30
2019-06-01T19:16:17.693Z,3.07
2019-06-01T19:17:52.976Z,3.27
2019-06-01T19:19:27.623Z,3.50
2019-06-01T19:21:02.932Z,3.40
2019-06-01T19:22:37.600Z,3.20
2019-06-01T19:24:12.839Z,3.10
2019-06-01T19:25:47.575Z,3.20
2019-06-01T19:27:22.885Z,3.60
2019-06-01T19:28:57.532Z,3.53
2019-06-01T19:30:37.861Z,3.60
2019-06-01T19:32:12.905Z,3.87
2019-06-01T19:33:48.116Z,4.37
2019-06-01T19:35:23.067Z,3.70
2019-06-01T19:36:59.068Z,3.90
2019-06-01T19:38:34.246Z,4.33
2019-06-01T19:40:11.348Z,3.97
2019-06-01T19:41:46.256Z,3.97
2019-06-01T19:43:21.545Z,5.33
2019-06-01T19:44:56.197Z,4.33
2019-06-01T19:46:31.454Z,4.20
2019-06-01T19:48:08.236Z,3.90
2019-06-01T19:49:44.078Z,4.20
2019-06-01T19:51:18.914Z,4.20
2019-06-01T19:52:54.121Z,4.93
2019-06-01T19:54:28.767Z,4.57
2019-06-01T19:56:04.380Z,4.50
2019-06-01T19:57:39.040Z,4.60
2019-06-01T19:59:14.274Z,4.80
2019-06-01T20:00:49.033Z,4.57
2019-06-01T20:02:33.274Z,4.60
2019-06-01T20:04:00.575Z,4.90
2019-06-01T20:05:35.956Z,4.73
2019-06-01T20:07:11.068Z,4.40
2019-06-01T20:08:46.351Z,4.47
2019-06-01T20:10:21.011Z,4.30
2019-06-01T20:12:01.951Z,4.83
2019-06-01T20:13:32.576Z,5.30
2019-06-01T20:15:08.782Z,4.57
2019-06-01T20:16:43.475Z,4.40
2019-06-01T20:18:19.134Z,5.13
2019-06-01T20:19:53.940Z,4.40
2019-06-01T20:21:29.195Z,5.07
2019-06-01T20:23:03.839Z,4.97
2019-06-01T20:24:39.135Z,4.67
2019-06-01T20:26:13.799Z,5.03
2019-06-01T20:27:49.177Z,4.73
2019-06-01T20:29:23.893Z,4.47
2019-06-01T20:30:59.091Z,4.57
2019-06-01T20:32:33.761Z,5.00
2019-06-01T20:34:09.350Z,4.93
2019-06-01T20:35:44.014Z,5.00
2019-06-01T20:37:20.153Z,4.93
2019-06-01T20:38:54.823Z,5.10
2019-06-01T20:40:30.113Z,4.50
2019-06-01T20:42:20.225Z,4.60
2019-06-01T20:43:41.850Z,4.13
2019-06-01T20:45:16.887Z,4.73
2019-06-01T20:46:52.482Z,4.70
2019-06-01T20:48:27.114Z,4.10
2019-06-01T20:50:02.387Z,4.53
2019-06-01T20:51:37.174Z,4.77
2019-06-01T20:53:12.805Z,4.50
2019-06-01T20:54:47.610Z,4.73
2019-06-01T20:56:23.603Z,5.30
2019-06-01T20:57:58.368Z,4.90
2019-06-01T20:59:33.603Z,4.90
2019-06-01T21:01:09.349Z,5.00
2019-06-01T21:02:44.566Z,4.87
2019-06-01T21:04:20.280Z,5.23
2019-06-01T21:05:55.702Z,5.53
2019-06-01T21:07:30.337Z,5.47
2019-06-01T21:09:07.792Z,5.47